Webb Lake, Wisconsin
Current Conditions -  °F | °C
As of 2:15 AM on Monday 26 Jan 2015 (Local Time) from KRZN Reporting Station
Broken Clouds Broken Clouds  
Wind Chill: 13°   Ceiling: 4600
Heat Index: 22°   Visibility: 10mi
Dew Point: 14°   Wind: 7mph
Humidity: 72%   Direction: 190°S
Pressure: 29.87"   Gusts: NA
Location:  46.1107°N, 92.219°W
Report Text: KRZN 260815Z AUTO 19006KT 10SM SCT023 SCT039 BKN046 M06/M10 A2987 RMK AO2 T10581101
Loading
Personal Weather Stations






























Interactive Weather Map New forecast layout! Learn more

10-Day Weather Forecast

Advertisements
Track Severe Weather on mobile